Time;durP1;ratioP1;P1;durP2;ratioP2;P2;SDS_P1;SDS_P2;PMS_P1;PMS_P2;Temp;Humidity;BMP_temperature;BMP_pressure;BME280_temperature;BME280_humidity;BME280_pressure;Samples;Min_cycle;Max_cycle;Signal;HPM_P1;HPM_P2
2023/02/22 00:01:01;;;;;;;137.15;131.65;;;9.70;94.00;;;;;;5049790;28;20026;-76
2023/02/22 00:03:31;;;;;;;137.43;131.93;;;9.60;94.00;;;;;;5049774;28;20079;-76
2023/02/22 00:06:05;;;;;;;136.35;130.93;;;9.40;94.00;;;;;;5049679;28;20021;-76
2023/02/22 00:08:35;;;;;;;131.18;125.95;;;9.30;94.00;;;;;;5049626;28;20025;-76
2023/02/22 00:11:04;;;;;;;122.50;117.63;;;9.20;94.00;;;;;;5049698;28;20021;-76
2023/02/22 00:13:31;;;;;;;121.82;117.03;;;9.10;94.10;;;;;;5031610;28;20520;-76
2023/02/22 00:15:58;;;;;;;119.07;114.40;;;9.00;94.10;;;;;;5049406;28;20021;-76
2023/02/22 00:18:27;;;;;;;111.20;106.85;;;8.90;94.10;;;;;;5049480;28;20394;-76
2023/02/22 00:20:53;;;;;;;107.72;103.53;;;8.80;94.00;;;;;;5031467;28;20033;-76
2023/02/22 00:23:21;;;;;;;;;;;8.70;94.00;;;;;;5049682;28;20029;-76
2023/02/22 00:25:48;;;;;;;105.53;101.43;;;8.70;94.10;;;;;;5049369;28;20374;-76
2023/02/22 00:28:16;;;;;;;104.25;100.25;;;8.60;94.00;;;;;;5049298;28;20029;-76
2023/02/22 00:30:42;;;;;;;104.85;100.85;;;8.60;94.10;;;;;;5049146;28;20036;-76
2023/02/22 00:33:09;;;;;;;;;;;8.50;94.00;;;;;;5049694;28;20028;-76
2023/02/22 00:35:34;;;;;;;98.50;94.70;;;8.40;94.00;;;;;;5049010;28;19920;-76
2023/02/22 00:38:01;;;;;;;103.15;99.15;;;8.40;94.00;;;;;;5015127;28;20033;-76
2023/02/22 00:40:30;;;;;;;100.18;96.38;;;8.30;94.00;;;;;;5049063;28;20032;-76
2023/02/22 00:42:57;;;;;;;96.03;92.40;;;8.30;94.10;;;;;;5049044;28;20445;-76
2023/02/22 00:45:26;;;;;;;96.95;93.32;;;8.30;94.10;;;;;;5030743;28;20045;-76
2023/02/22 00:47:53;;;;;;;98.07;94.38;;;8.30;94.10;;;;;;5048797;28;20075;-76
2023/02/22 00:50:20;;;;;;;100.32;96.53;;;8.30;94.10;;;;;;5048842;28;20044;-76
2023/02/22 00:52:47;;;;;;;100.53;96.72;;;8.20;94.10;;;;;;5030926;28;20028;-76
2023/02/22 00:55:20;;;;;;;96.70;93.00;;;8.20;94.00;;;;;;5047934;28;20021;-76
2023/02/22 00:57:46;;;;;;;100.20;96.40;;;8.20;94.10;;;;;;5048646;28;20558;-76
2023/02/22 01:00:21;;;;;;;99.28;95.47;;;8.30;94.10;;;;;;5048612;28;20072;-76
2023/02/22 01:02:50;;;;;;;101.50;97.60;;;8.30;94.10;;;;;;5048511;28;20063;-76
2023/02/22 01:05:18;;;;;;;102.97;99.07;;;8.30;94.10;;;;;;5048580;28;20053;-76
2023/02/22 01:07:44;;;;;;;101.63;97.72;;;8.30;94.10;;;;;;5048543;28;20032;-76
2023/02/22 01:10:11;;;;;;;103.90;99.93;;;8.30;94.10;;;;;;5048428;28;20040;-76
2023/02/22 01:12:37;;;;;;;107.60;103.50;;;8.40;94.10;;;;;;5048319;28;20035;-76
2023/02/22 01:15:04;;;;;;;108.88;104.68;;;8.40;94.10;;;;;;5048249;28;20112;-76
2023/02/22 01:17:30;;;;;;;106.05;101.95;;;8.40;94.00;;;;;;5048200;28;20040;-76
2023/02/22 01:19:56;;;;;;;107.13;103.03;;;8.50;94.10;;;;;;5048306;28;20028;-76
2023/02/22 01:22:22;;;;;;;105.90;101.80;;;8.40;94.00;;;;;;5048340;28;20500;-76
2023/02/22 01:24:48;;;;;;;104.82;100.82;;;8.50;94.10;;;;;;5048125;28;20037;-76
2023/02/22 01:27:14;;;;;;;106.78;102.68;;;8.40;94.00;;;;;;5048421;28;20076;-76
2023/02/22 01:29:40;;;;;;;105.53;101.53;;;8.50;94.00;;;;;;5048103;28;20086;-76
2023/02/22 01:32:06;;;;;;;106.75;102.65;;;8.40;94.00;;;;;;5048165;28;20037;-76
2023/02/22 01:34:32;;;;;;;108.82;104.63;;;8.50;94.00;;;;;;5047955;28;20040;-76
2023/02/22 01:37:00;;;;;;;;;;;8.50;94.00;;;;;;5048416;28;20469;-76
2023/02/22 01:39:26;;;;;;;106.50;102.40;;;8.50;94.00;;;;;;5047983;28;19905;-76
2023/02/22 01:41:55;;;;;;;109.85;105.65;;;8.50;94.00;;;;;;5030026;28;20033;-76
2023/02/22 01:44:29;;;;;;;114.75;110.35;;;8.50;94.00;;;;;;5047723;28;20049;-76
2023/02/22 01:46:56;;;;;;;109.55;105.35;;;8.50;94.00;;;;;;5047701;28;20128;-76
2023/02/22 01:49:25;;;;;;;114.30;109.90;;;8.50;94.00;;;;;;5047714;28;20028;-77
2023/02/22 01:51:54;;;;;;;111.85;107.55;;;8.50;93.90;;;;;;5047730;28;20036;-76
2023/02/22 01:54:32;;;;;;;110.18;105.97;;;8.50;93.90;;;;;;5047629;28;20381;-76
2023/02/22 01:57:14;;;;;;;110.82;106.55;;;8.50;94.00;;;;;;5047672;28;20063;-76
2023/02/22 01:59:44;;;;;;;112.43;108.13;;;8.40;94.00;;;;;;5047575;28;20029;-76
2023/02/22 02:02:11;;;;;;;113.25;108.95;;;8.40;94.00;;;;;;5047633;28;20044;-76
2023/02/22 02:04:37;;;;;;;109.90;105.70;;;8.50;94.00;;;;;;5047572;28;20022;-76
2023/02/22 02:07:06;;;;;;;112.82;108.53;;;8.40;94.00;;;;;;5046640;28;20087;-76
2023/02/22 02:09:41;;;;;;;109.60;105.40;;;8.40;94.00;;;;;;5047382;28;20615;-76
2023/02/22 02:12:10;;;;;;;119.40;114.82;;;8.40;94.00;;;;;;5047650;28;20029;-76
2023/02/22 02:14:39;;;;;;;112.60;108.30;;;8.40;94.00;;;;;;5029520;28;20431;-75
2023/02/22 02:17:08;;;;;;;110.20;106.00;;;8.40;94.00;;;;;;5047303;28;20021;-76
2023/02/22 02:19:46;;;;;;;116.00;111.60;;;8.40;94.00;;;;;;5047382;28;20043;-76
2023/02/22 02:22:27;;;;;;;107.75;103.65;;;8.30;94.00;;;;;;5047488;28;20032;-76
2023/02/22 02:25:08;;;;;;;104.97;101.00;;;8.30;94.00;;;;;;5047562;28;20024;-76
2023/02/22 02:27:51;;;;;;;105.60;101.60;;;8.30;94.00;;;;;;5047268;28;20423;-76
2023/02/22 02:30:48;;;;;;;99.55;95.75;;;8.20;94.00;;;;;;5047390;28;20036;-76
2023/02/22 02:33:19;;;;;;;104.75;100.80;;;8.20;94.00;;;;;;5047345;28;20412;-76
2023/02/22 02:36:08;;;;;;;106.95;102.95;;;8.20;94.00;;;;;;5047277;28;20025;-76
2023/02/22 02:38:53;;;;;;;101.07;97.28;;;8.20;94.00;;;;;;5047181;28;20028;-76
2023/02/22 02:41:28;;;;;;;101.40;97.60;;;8.20;94.00;;;;;;5047382;28;20509;-76
2023/02/22 02:44:04;;;;;;;102.70;98.85;;;8.10;94.00;;;;;;5047166;28;20059;-76
2023/02/22 02:46:49;;;;;;;98.38;94.68;;;8.10;94.00;;;;;;5025808;28;20041;-75
2023/02/22 02:49:21;;;;;;;99.95;96.15;;;8.10;94.00;;;;;;5027443;28;20329;-76
2023/02/22 02:51:51;;;;;;;97.28;93.57;;;8.10;94.00;;;;;;5027357;28;20084;-75
2023/02/22 02:54:18;;;;;;;98.70;95.00;;;8.10;94.00;;;;;;5027258;28;20021;-75
2023/02/22 02:56:45;;;;;;;101.88;98.03;;;8.10;94.00;;;;;;5027163;28;20029;-75
2023/02/22 02:59:46;;;;;;;97.45;93.75;;;8.10;94.00;;;;;;5027299;28;20021;-75
2023/02/22 03:02:17;;;;;;;100.28;96.53;;;8.10;94.00;;;;;;5005125;28;20033;-76
2023/02/22 03:05:01;;;;;;;101.40;97.60;;;8.10;94.00;;;;;;5023354;28;20034;-75
2023/02/22 03:07:46;;;;;;;101.28;97.47;;;8.10;94.00;;;;;;5027268;28;20025;-75
2023/02/22 03:10:39;;;;;;;102.68;98.82;;;8.10;94.00;;;;;;5027145;28;20029;-75
2023/02/22 03:13:08;;;;;;;102.28;98.47;;;8.10;94.00;;;;;;5027122;28;20029;-75
2023/02/22 03:16:01;;;;;;;101.43;97.63;;;8.10;94.00;;;;;;5026840;28;20036;-75
2023/02/22 03:18:37;;;;;;;101.07;97.28;;;8.00;94.00;;;;;;5029635;28;20013;-75
2023/02/22 03:21:37;;;;;;;100.47;96.68;;;8.00;94.00;;;;;;5030646;28;20029;-75
2023/02/22 03:24:06;;;;;;;102.18;98.35;;;7.90;94.00;;;;;;5029284;28;20029;-75
2023/02/22 03:26:54;;;;;;;103.28;99.38;;;7.90;94.00;;;;;;5029277;28;20057;-75
2023/02/22 03:29:20;;;;;;;;;;;7.90;94.00;;;;;;5031074;28;20503;-75
2023/02/22 03:32:00;;;;;;;103.45;99.55;;;7.90;94.10;;;;;;5030585;28;19905;-75
2023/02/22 03:34:33;;;;;;;99.00;95.30;;;7.90;94.00;;;;;;5030405;28;20048;-75
2023/02/22 03:37:05;;;;;;;100.40;96.60;;;7.90;94.00;;;;;;5030331;28;20030;-75
2023/02/22 03:39:34;;;;;;;100.30;96.50;;;7.90;94.00;;;;;;5030594;28;20029;-75
2023/02/22 03:42:08;;;;;;;101.80;98.00;;;7.90;94.00;;;;;;5030305;28;20030;-77
2023/02/22 03:44:36;;;;;;;99.25;95.55;;;7.90;94.00;;;;;;5030419;28;20029;-76
2023/02/22 03:47:08;;;;;;;97.38;93.68;;;7.90;93.90;;;;;;5028807;28;20045;-76
2023/02/22 03:49:56;;;;;;;98.32;94.63;;;7.90;94.00;;;;;;5030302;28;20025;-76
2023/02/22 03:52:22;;;;;;;97.47;93.78;;;7.80;94.00;;;;;;5030257;28;20026;-77
2023/02/22 03:54:52;;;;;;;101.50;97.70;;;7.90;94.00;;;;;;5030031;28;20033;-75
2023/02/22 03:57:37;;;;;;;98.55;94.85;;;7.90;94.00;;;;;;5028666;28;20481;-76
2023/02/22 04:00:06;;;;;;;94.97;91.43;;;7.80;94.00;;;;;;5030208;28;20017;-76
2023/02/22 04:02:33;;;;;;;99.32;95.63;;;7.80;94.00;;;;;;5029972;28;20021;-76
2023/02/22 04:04:59;;;;;;;100.40;96.60;;;7.80;94.00;;;;;;5030003;28;20052;-76
2023/02/22 04:07:24;;;;;;;102.47;98.57;;;7.80;93.90;;;;;;5028525;28;20037;-76
2023/02/22 04:09:50;;;;;;;102.35;98.45;;;7.80;93.90;;;;;;5029844;28;20041;-76
2023/02/22 04:12:16;;;;;;;106.38;102.38;;;7.80;94.00;;;;;;5029910;28;20036;-76
2023/02/22 04:14:42;;;;;;;108.55;104.45;;;7.70;93.90;;;;;;5029757;28;20041;-77
2023/02/22 04:17:07;;;;;;;110.88;106.68;;;7.70;93.90;;;;;;5028436;28;20393;-76
2023/02/22 04:19:33;;;;;;;116.60;112.20;;;7.60;93.80;;;;;;5029649;28;20160;-76
2023/02/22 04:21:59;;;;;;;111.63;107.40;;;7.60;93.80;;;;;;5029676;28;20026;-76
2023/02/22 04:24:25;;;;;;;108.45;104.35;;;7.50;93.80;;;;;;5029579;28;20033;-76
2023/02/22 04:26:50;;;;;;;106.30;102.30;;;7.50;93.90;;;;;;5029503;28;20393;-76
2023/02/22 04:29:16;;;;;;;104.22;100.28;;;7.40;93.90;;;;;;5028576;28;20510;-76
2023/02/22 04:31:42;;;;;;;103.93;100.00;;;7.40;93.90;;;;;;5029444;28;20041;-76
2023/02/22 04:34:08;;;;;;;101.90;98.10;;;7.50;94.00;;;;;;5029347;28;20167;-76
2023/02/22 04:36:33;;;;;;;96.10;92.53;;;7.40;93.90;;;;;;5028005;28;20029;-76
2023/02/22 04:38:59;;;;;;;93.53;90.05;;;7.50;93.90;;;;;;5029290;28;20104;-76
2023/02/22 04:41:25;;;;;;;90.63;87.22;;;7.50;94.00;;;;;;5027982;28;20034;-75
2023/02/22 04:43:51;;;;;;;86.53;83.32;;;7.50;93.90;;;;;;5029173;28;20018;-77
2023/02/22 04:46:17;;;;;;;81.30;78.30;;;7.50;94.00;;;;;;5041037;28;20493;-76
2023/02/22 04:48:43;;;;;;;80.68;77.68;;;7.50;94.00;;;;;;5048990;28;20040;-76
2023/02/22 04:51:09;;;;;;;80.13;77.15;;;7.60;93.90;;;;;;5031128;28;20082;-76
2023/02/22 04:53:35;;;;;;;75.30;72.50;;;7.60;93.90;;;;;;5048873;28;20033;-77
2023/02/22 04:56:01;;;;;;;75.13;72.40;;;7.50;93.90;;;;;;5048890;28;20040;-76
2023/02/22 04:58:27;;;;;;;73.38;70.68;;;7.60;93.90;;;;;;5048767;28;20488;-76
2023/02/22 05:00:53;;;;;;;73.85;71.15;;;7.50;93.90;;;;;;5048714;28;20037;-76
2023/02/22 05:03:18;;;;;;;72.55;69.85;;;7.50;93.90;;;;;;5048739;28;20104;-76
2023/02/22 05:05:44;;;;;;;72.38;69.70;;;7.50;94.00;;;;;;5048555;28;20037;-76
2023/02/22 05:08:10;;;;;;;69.75;67.15;;;7.50;94.00;;;;;;5048418;28;20037;-76
2023/02/22 05:10:35;;;;;;;73.35;70.65;;;7.50;94.00;;;;;;5048389;28;20035;-76
2023/02/22 05:13:01;;;;;;;76.13;73.32;;;7.60;94.00;;;;;;5048487;28;20047;-76
2023/02/22 05:15:27;;;;;;;74.38;71.68;;;7.50;93.90;;;;;;5048326;28;20516;-76
2023/02/22 05:17:53;;;;;;;71.95;69.30;;;7.50;93.90;;;;;;5030552;28;20549;-76
2023/02/22 05:20:28;;;;;;;69.45;66.85;;;7.50;93.90;;;;;;5048299;28;20037;-76
2023/02/22 05:22:59;;;;;;;73.50;70.80;;;7.40;93.90;;;;;;5048427;28;20022;-76
2023/02/22 05:25:25;;;;;;;72.28;69.57;;;7.50;93.90;;;;;;5048166;28;20112;-76
2023/02/22 05:27:58;;;;;;;74.32;71.63;;;7.40;93.90;;;;;;5048206;28;20486;-76
2023/02/22 05:30:27;;;;;;;70.88;68.28;;;7.40;93.90;;;;;;5048155;28;20021;-76
2023/02/22 05:32:53;;;;;;;70.72;68.13;;;7.40;93.90;;;;;;5048236;28;20380;-76
2023/02/22 05:35:20;;;;;;;75.30;72.50;;;7.40;93.90;;;;;;5048093;28;20025;-76
2023/02/22 05:37:46;;;;;;;70.95;68.35;;;7.40;93.90;;;;;;5047966;28;20033;-76
2023/02/22 05:40:13;;;;;;;73.22;70.53;;;7.40;93.90;;;;;;5048169;28;20025;-76
2023/02/22 05:42:39;;;;;;;71.63;68.93;;;7.40;93.90;;;;;;5048089;28;20417;-76
2023/02/22 05:45:06;;;;;;;70.65;68.05;;;7.40;93.90;;;;;;5047738;28;20021;-76
2023/02/22 05:47:32;;;;;;;71.22;68.60;;;7.40;93.90;;;;;;5029947;28;20040;-76
2023/02/22 05:49:58;;;;;;;69.97;67.38;;;7.40;93.90;;;;;;5047763;28;20025;-76
2023/02/22 05:52:23;;;;;;;73.35;70.65;;;7.40;93.90;;;;;;5047771;28;20037;-77
2023/02/22 05:54:49;;;;;;;69.10;66.50;;;7.40;93.80;;;;;;5047582;28;20033;-76
2023/02/22 05:57:15;;;;;;;66.90;64.40;;;7.30;93.80;;;;;;5047312;28;20084;-76
2023/02/22 05:59:42;;;;;;;68.70;66.18;;;7.30;93.80;;;;;;5029737;28;20420;-76
2023/02/22 06:02:07;;;;;;;;;;;7.30;93.90;;;;;;5048165;28;20033;-76
2023/02/22 06:04:33;;;;;;;65.07;62.67;;;7.30;93.90;;;;;;5047616;28;20365;-76
2023/02/22 06:06:59;;;;;;;66.97;64.47;;;7.30;93.90;;;;;;5047496;28;20396;-77
2023/02/22 06:09:25;;;;;;;66.93;64.43;;;7.30;93.80;;;;;;5047747;28;20028;-76
2023/02/22 06:11:51;;;;;;;65.85;63.42;;;7.30;93.90;;;;;;5047756;28;20032;-77
2023/02/22 06:14:16;;;;;;;65.13;62.72;;;7.20;93.80;;;;;;5047374;28;20040;-77
2023/02/22 06:16:42;;;;;;;70.25;67.65;;;7.20;93.80;;;;;;5047169;28;20040;-76
2023/02/22 06:19:08;;;;;;;68.10;65.60;;;7.20;93.80;;;;;;5013336;28;20041;-76
2023/02/22 06:21:33;;;;;;;66.80;64.30;;;7.20;93.80;;;;;;5047313;28;20029;-76
2023/02/22 06:24:02;;;;;;;67.95;65.45;;;7.10;93.80;;;;;;5047214;28;20029;-77
2023/02/22 06:26:28;;;;;;;65.65;63.25;;;7.10;93.80;;;;;;5047536;28;20036;-76
2023/02/22 06:28:54;;;;;;;66.82;64.32;;;7.10;93.80;;;;;;5047616;28;20531;-76
2023/02/22 06:31:20;;;;;;;67.35;64.85;;;7.00;93.80;;;;;;5047083;28;20047;-76
2023/02/22 06:33:46;;;;;;;67.53;65.03;;;7.00;93.80;;;;;;5047405;28;20309;-77
2023/02/22 06:36:11;;;;;;;67.25;64.75;;;7.00;93.80;;;;;;5047669;28;20045;-76
2023/02/22 06:38:37;;;;;;;65.68;63.28;;;7.00;93.80;;;;;;5047232;28;20025;-76
2023/02/22 06:41:03;;;;;;;64.05;61.65;;;7.00;93.70;;;;;;5047438;28;20465;-77
2023/02/22 06:43:28;;;;;;;66.35;63.85;;;6.90;93.70;;;;;;5047114;28;20048;-77
2023/02/22 06:45:54;;;;;;;64.57;62.17;;;6.90;93.70;;;;;;5047059;28;20054;-77
2023/02/22 06:48:20;;;;;;;63.88;61.47;;;6.90;93.80;;;;;;5047316;28;20033;-77
2023/02/22 06:50:45;;;;;;;68.10;65.60;;;6.90;93.70;;;;;;5046986;28;20049;-77
2023/02/22 06:53:11;;;;;;;68.28;65.78;;;6.90;93.70;;;;;;5049388;28;20439;-77
2023/02/22 06:55:37;;;;;;;63.78;61.38;;;6.90;93.70;;;;;;5050850;28;20032;-77
2023/02/22 06:58:04;;;;;;;63.25;60.88;;;6.80;93.70;;;;;;5050534;28;20037;-77
2023/02/22 07:00:30;;;;;;;63.83;61.42;;;6.80;93.70;;;;;;5050803;28;20040;-77
2023/02/22 07:02:57;;;;;;;63.35;60.95;;;6.80;93.70;;;;;;5050734;28;20113;-77
2023/02/22 07:05:24;;;;;;;62.05;59.75;;;6.80;93.70;;;;;;5050975;28;20049;-77
2023/02/22 07:07:53;;;;;;;63.28;60.88;;;6.70;93.70;;;;;;5050537;28;20029;-73
2023/02/22 07:10:28;;;;;;;60.80;58.53;;;6.80;93.80;;;;;;5050859;28;20409;-75
2023/02/22 07:12:54;;;;;;;61.40;59.10;;;6.80;93.80;;;;;;5050835;28;20385;-75
2023/02/22 07:15:22;;;;;;;64.55;62.15;;;6.70;93.70;;;;;;5050146;28;20045;-75
2023/02/22 07:17:48;;;;;;;62.63;60.33;;;6.70;93.70;;;;;;5050341;28;20497;-75
2023/02/22 07:20:14;;;;;;;;;;;6.70;93.70;;;;;;5051000;28;20033;-75
2023/02/22 07:22:40;;;;;;;63.83;61.42;;;6.60;93.70;;;;;;5050353;28;19912;-75
2023/02/22 07:25:08;;;;;;;63.33;60.92;;;6.60;93.70;;;;;;5050577;28;20112;-74
2023/02/22 07:27:37;;;;;;;63.90;61.50;;;6.50;93.70;;;;;;5050203;28;20044;-75
2023/02/22 07:30:04;;;;;;;67.38;64.88;;;6.40;93.70;;;;;;5050371;28;20568;-74
2023/02/22 07:32:32;;;;;;;65.60;63.15;;;6.40;93.70;;;;;;5050187;28;20047;-75
2023/02/22 07:34:57;;;;;;;64.85;62.45;;;6.40;93.70;;;;;;5050150;28;20388;-78
2023/02/22 07:37:23;;;;;;;66.97;64.47;;;6.40;93.70;;;;;;5049794;28;20044;-74
2023/02/22 07:39:49;;;;;;;59.72;57.53;;;6.40;93.70;;;;;;5049543;28;20029;-75
2023/02/22 07:42:14;;;;;;;63.30;60.90;;;6.40;93.70;;;;;;5049215;28;20025;-77
2023/02/22 07:44:40;;;;;;;64.10;61.70;;;6.30;93.70;;;;;;5049892;28;20036;-77
2023/02/22 07:47:06;;;;;;;64.03;61.63;;;6.30;93.70;;;;;;5049920;28;20110;-77
2023/02/22 07:49:31;;;;;;;64.78;62.38;;;6.40;93.80;;;;;;5031965;28;20393;-77
2023/02/22 07:51:57;;;;;;;61.80;59.50;;;6.40;93.80;;;;;;5032127;28;20033;-78
2023/02/22 07:54:23;;;;;;;66.38;63.88;;;6.60;94.00;;;;;;5049893;28;20398;-77
2023/02/22 07:56:48;;;;;;;63.88;61.47;;;6.80;94.00;;;;;;5031117;28;20037;-75
2023/02/22 07:59:15;;;;;;;64.57;62.17;;;6.90;93.90;;;;;;5049451;28;20025;-76
2023/02/22 08:01:41;;;;;;;69.60;67.00;;;6.90;93.70;;;;;;5048598;28;20449;-76
2023/02/22 08:04:07;;;;;;;70.60;68.00;;;6.90;93.60;;;;;;5048591;28;20476;-76
2023/02/22 08:06:33;;;;;;;66.90;64.40;;;6.90;93.70;;;;;;5048475;28;20036;-76
2023/02/22 08:08:59;;;;;;;62.67;60.35;;;6.80;93.60;;;;;;5048587;28;20072;-76
2023/02/22 08:11:25;;;;;;;66.60;64.10;;;6.70;93.50;;;;;;5048880;28;20056;-66
2023/02/22 08:13:51;;;;;;;;;;;6.80;93.80;;;;;;5049621;28;20035;-76
2023/02/22 08:16:16;;;;;;;60.95;58.65;;;6.90;93.90;;;;;;5049422;28;20311;-76
2023/02/22 08:18:42;;;;;;;60.15;57.85;;;6.90;93.80;;;;;;5049015;28;20389;-76
2023/02/22 08:21:08;;;;;;;65.18;62.75;;;6.90;93.60;;;;;;5048949;28;20033;-76
2023/02/22 08:23:34;;;;;;;60.70;58.40;;;6.80;93.60;;;;;;5048747;28;20055;-77
2023/02/22 08:26:14;;;;;;;57.58;55.38;;;6.90;93.70;;;;;;5049006;28;20036;-76
2023/02/22 08:28:40;;;;;;;56.35;54.25;;;6.90;93.80;;;;;;5030856;28;20330;-75
2023/02/22 08:31:07;;;;;;;53.45;51.45;;;7.00;93.80;;;;;;5048883;28;20314;-76
2023/02/22 08:33:34;;;;;;;54.38;52.38;;;7.00;93.60;;;;;;5031075;28;20033;-76
2023/02/22 08:36:00;;;;;;;51.70;49.80;;;6.90;93.50;;;;;;5049213;28;20051;-76
2023/02/22 08:38:29;;;;;;;55.80;53.70;;;6.80;93.50;;;;;;5048511;28;20076;-76
2023/02/22 08:40:55;;;;;;;56.25;54.15;;;6.80;93.60;;;;;;5048684;28;20025;-75
2023/02/22 08:43:21;;;;;;;;;;;6.80;93.60;;;;;;5048905;28;20021;-76
2023/02/22 08:45:47;;;;;;;52.42;50.42;;;6.80;93.60;;;;;;5048338;28;20331;-77
2023/02/22 08:48:14;;;;;;;49.10;47.30;;;6.80;93.60;;;;;;5048466;28;20033;-76
2023/02/22 08:50:40;;;;;;;46.13;44.42;;;6.80;93.70;;;;;;5030815;28;20075;-76
2023/02/22 08:53:07;;;;;;;;;;;6.80;93.80;;;;;;5030256;28;20400;-76
2023/02/22 08:55:35;;;;;;;40.40;38.90;;;6.90;93.80;;;;;;5047819;28;20015;-75
2023/02/22 08:58:03;;;;;;;34.58;33.28;;;7.10;94.10;;;;;;5048166;28;20025;-72
2023/02/22 09:00:31;;;;;;;26.42;25.42;;;7.40;94.40;;;;;;5047862;28;20163;-77
2023/02/22 09:02:58;;;;;;;29.23;28.13;;;8.20;94.90;;;;;;5029516;28;20431;-76
2023/02/22 09:05:24;;;;;;;21.60;20.70;;;8.50;94.30;;;;;;5047334;28;20136;-76
2023/02/22 09:07:50;;;;;;;16.10;15.40;;;8.80;94.40;;;;;;5047945;28;20168;-76
2023/02/22 09:10:19;;;;;;;13.25;12.65;;;9.40;95.10;;;;;;5030161;28;20424;-76
2023/02/22 09:12:45;;;;;;;7.85;7.45;;;10.30;95.40;;;;;;5048169;28;20497;-76
2023/02/22 09:15:11;;;;;;;2.20;2.00;;;11.30;95.40;;;;;;5047543;28;20046;-76
2023/02/22 09:17:37;;;;;;;;;;;12.20;95.20;;;;;;5048573;28;20037;-76
2023/02/22 09:20:05;;;;;;;0.32;0.32;;;12.90;95.10;;;;;;5029610;28;20006;-76
2023/02/22 09:22:30;;;;;;;0.20;0.20;;;13.50;95.10;;;;;;5047180;28;20511;-77
2023/02/22 09:24:56;;;;;;;0.10;0.10;;;14.10;95.20;;;;;;5047700;28;20025;-77
2023/02/22 09:27:22;;;;;;;0.00;0.00;;;14.70;95.20;;;;;;5047686;28;20104;-77
2023/02/22 09:29:48;;;;;;;0.00;0.00;;;15.30;95.00;;;;;;5047586;28;20431;-76
2023/02/22 09:32:16;;;;;;;;;;;15.10;93.90;;;;;;5048214;28;20037;-77
2023/02/22 09:34:44;;;;;;;0.20;0.20;;;14.40;93.50;;;;;;5047552;28;19909;-76
2023/02/22 09:37:11;;;;;;;0.10;0.10;;;14.10;94.40;;;;;;5047350;28;20060;-76
2023/02/22 09:39:38;;;;;;;0.10;0.10;;;14.50;95.10;;;;;;5047506;28;20116;-76
2023/02/22 09:42:32;;;;;;;0.00;0.00;;;15.10;95.40;;;;;;5048432;28;20104;-76
2023/02/22 09:45:12;;;;;;;0.00;0.00;;;15.60;95.20;;;;;;5029294;28;20029;-76
2023/02/22 09:47:48;;;;;;;0.00;0.00;;;16.30;95.30;;;;;;5047339;28;20032;-77
2023/02/22 09:50:20;;;;;;;0.00;0.00;;;16.70;95.20;;;;;;5047313;28;20025;-77
2023/02/22 09:53:03;;;;;;;0.00;0.00;;;17.10;95.30;;;;;;5049173;28;20039;-77
2023/02/22 09:55:46;;;;;;;0.00;0.00;;;17.50;95.40;;;;;;5048875;28;20032;-77
2023/02/22 09:58:48;;;;;;;0.00;0.00;;;17.80;95.30;;;;;;5049028;28;20096;-76
2023/02/22 10:01:38;;;;;;;0.00;0.00;;;17.80;95.00;;;;;;5046476;28;20037;-77
2023/02/22 10:04:29;;;;;;;0.00;0.00;;;17.90;94.90;;;;;;5054933;28;20062;-76
2023/02/22 10:06:54;;;;;;;0.00;0.00;;;17.80;95.00;;;;;;5052130;28;20025;-76
2023/02/22 10:09:25;;;;;;;0.00;0.00;;;18.10;95.20;;;;;;5069375;28;20416;-75
2023/02/22 10:11:58;;;;;;;0.00;0.00;;;18.30;95.30;;;;;;5069054;28;20455;-74
2023/02/22 10:14:27;;;;;;;0.00;0.00;;;18.80;95.40;;;;;;5053238;28;20065;-75
2023/02/22 10:17:17;;;;;;;0.00;0.00;;;19.10;95.60;;;;;;5063502;28;20079;-75
2023/02/22 10:19:58;;;;;;;0.00;0.00;;;19.50;95.70;;;;;;5063978;28;20554;-75
2023/02/22 10:22:39;;;;;;;0.00;0.00;;;19.80;95.70;;;;;;5060754;28;20104;-76
2023/02/22 10:25:11;;;;;;;0.00;0.00;;;20.10;95.60;;;;;;5048780;28;20044;-76
2023/02/22 10:27:46;;;;;;;0.00;0.00;;;20.30;95.60;;;;;;5060103;28;20484;-76
2023/02/22 10:30:24;;;;;;;0.00;0.00;;;20.80;95.90;;;;;;5059988;28;20131;-76
2023/02/22 10:33:08;;;;;;;0.00;0.00;;;21.20;95.70;;;;;;5058428;28;20027;-76
2023/02/22 10:35:36;;;;;;;1.00;1.00;;;21.50;95.40;;;;;;5064499;28;20043;-76
2023/02/22 10:38:17;;;;;;;0.00;0.00;;;21.60;95.10;;;;;;5056333;28;20013;-75
2023/02/22 10:40:50;;;;;;;0.00;0.00;;;21.50;95.20;;;;;;5067035;28;20009;-75
2023/02/22 10:43:16;;;;;;;0.00;0.00;;;21.70;95.40;;;;;;5045510;28;20021;-76
2023/02/22 10:45:42;;;;;;;0.00;0.00;;;22.00;95.50;;;;;;5044767;28;20052;-75
2023/02/22 10:48:17;;;;;;;0.00;0.00;;;21.90;95.10;;;;;;5065415;28;20044;-76
2023/02/22 10:50:44;;;;;;;0.00;0.00;;;21.20;94.60;;;;;;5063179;28;20096;-75
2023/02/22 10:53:11;;;;;;;0.00;0.00;;;20.40;94.50;;;;;;5063411;28;20033;-76
2023/02/22 10:56:15;;;;;;;0.00;0.00;;;19.80;94.80;;;;;;5058657;28;20392;-76
2023/02/22 10:58:47;;;;;;;0.00;0.00;;;19.20;94.90;;;;;;5059607;28;20017;-75
2023/02/22 11:01:45;;;;;;;0.00;0.00;;;19.00;95.50;;;;;;5057751;28;20020;-76
2023/02/22 11:04:13;;;;;;;0.00;0.00;;;19.30;95.80;;;;;;5053035;28;20094;-76
2023/02/22 11:06:43;;;;;;;0.00;0.00;;;19.70;95.90;;;;;;5072395;28;20096;-76
2023/02/22 11:09:17;;;;;;;0.00;0.00;;;20.00;95.50;;;;;;5072484;28;20024;-76
2023/02/22 11:11:45;;;;;;;0.00;0.00;;;19.90;95.10;;;;;;5053591;28;20058;-78
2023/02/22 11:14:32;;;;;;;0.00;0.00;;;19.90;95.40;;;;;;5072201;28;20090;-80
2023/02/22 11:17:00;;;;;;;0.00;0.00;;;20.30;95.60;;;;;;5065181;28;20060;-79
2023/02/22 11:19:28;;;;;;;0.00;0.00;;;20.80;95.70;;;;;;5061259;28;20024;-79
2023/02/22 11:22:29;;;;;;;0.10;0.10;;;21.50;95.90;;;;;;5048200;28;20051;-78
2023/02/22 11:25:01;;;;;;;0.08;0.08;;;22.30;95.90;;;;;;5050457;28;20132;-77
2023/02/22 11:27:37;;;;;;;0.00;0.00;;;22.50;95.30;;;;;;5056977;28;20108;-78
2023/02/22 11:30:29;;;;;;;0.00;0.00;;;22.10;95.20;;;;;;5060293;28;20020;-71
2023/02/22 11:32:57;;;;;;;0.00;0.00;;;21.90;95.60;;;;;;5033394;28;20054;-72
2023/02/22 11:35:37;;;;;;;0.00;0.00;;;21.50;94.80;;;;;;5041963;28;20028;-71
2023/02/22 11:38:11;;;;;;;0.00;0.00;;;20.70;94.50;;;;;;5057784;28;20025;-71
2023/02/22 11:40:38;;;;;;;0.00;0.00;;;19.70;94.80;;;;;;5055691;28;20032;-71
2023/02/22 11:43:10;;;;;;;0.00;0.00;;;19.00;95.00;;;;;;5061690;28;20020;-71
2023/02/22 11:45:37;;;;;;;0.00;0.00;;;18.50;95.10;;;;;;5055816;28;20060;-70
2023/02/22 11:48:05;;;;;;;0.00;0.00;;;18.10;95.10;;;;;;5059849;28;20020;-69
2023/02/22 11:50:50;;;;;;;0.00;0.00;;;17.90;95.40;;;;;;5060401;28;20030;-71
2023/02/22 11:53:43;;;;;;;0.00;0.00;;;17.90;95.30;;;;;;5060547;28;20027;-71
2023/02/22 11:56:17;;;;;;;0.00;0.00;;;17.80;95.20;;;;;;5056713;28;20044;-70
2023/02/22 11:58:55;;;;;;;0.00;0.00;;;17.30;94.60;;;;;;5058722;28;20123;-71
2023/02/22 12:01:25;;;;;;;0.00;0.00;;;16.90;94.40;;;;;;5062191;28;20120;-70
2023/02/22 12:04:25;;;;;;;0.00;0.00;;;16.40;94.60;;;;;;5056195;28;20025;-70
2023/02/22 12:07:19;;;;;;;0.00;0.00;;;15.90;94.60;;;;;;5055900;28;20036;-70
2023/02/22 12:10:18;;;;;;;0.00;0.00;;;15.50;94.90;;;;;;5058599;28;20028;-71
2023/02/22 12:13:00;;;;;;;0.00;0.00;;;15.40;95.00;;;;;;5057553;28;20025;-72
2023/02/22 12:15:32;;;;;;;0.00;0.00;;;15.30;95.10;;;;;;5040383;28;20025;-71
2023/02/22 12:18:46;;;;;;;0.00;0.00;;;15.20;95.10;;;;;;5044244;28;20108;-71
2023/02/22 12:21:16;;;;;;;0.00;0.00;;;15.10;95.10;;;;;;5041960;28;20071;-71
2023/02/22 12:24:15;;;;;;;0.00;0.00;;;15.20;95.00;;;;;;5069847;28;20016;-71
2023/02/22 12:26:50;;;;;;;0.00;0.00;;;15.20;94.80;;;;;;5069829;28;20444;-71
2023/02/22 12:29:36;;;;;;;0.00;0.00;;;15.10;94.70;;;;;;5052504;28;20043;-73
2023/02/22 12:32:32;;;;;;;0.00;0.00;;;15.10;94.60;;;;;;5069808;28;20499;-74
2023/02/22 12:35:07;;;;;;;0.00;0.00;;;15.00;94.50;;;;;;5069501;28;20032;-74
2023/02/22 12:37:51;;;;;;;0.00;0.00;;;14.90;94.60;;;;;;5069095;28;20077;-73
2023/02/22 12:40:41;;;;;;;0.00;0.00;;;14.80;94.70;;;;;;5069433;28;20051;-72
2023/02/22 12:43:16;;;;;;;0.00;0.00;;;14.50;94.50;;;;;;5069463;28;20030;-71
2023/02/22 12:45:59;;;;;;;0.00;0.00;;;14.00;94.70;;;;;;5069298;28;20098;-73
2023/02/22 12:48:30;;;;;;;0.10;0.00;;;13.70;95.00;;;;;;5069381;28;20016;-72
2023/02/22 12:51:27;;;;;;;0.00;0.00;;;13.50;95.40;;;;;;5068035;28;20123;-70
2023/02/22 12:54:10;;;;;;;0.13;0.10;;;13.70;95.80;;;;;;5068550;28;20376;-73
2023/02/22 12:57:08;;;;;;;0.00;0.00;;;14.10;95.60;;;;;;5068788;28;20028;-73
2023/02/22 12:59:44;;;;;;;0.00;0.00;;;14.50;95.60;;;;;;5063323;28;20086;-72